createdAt,value
2023-01-23T00:00:14.606Z,16.10
2023-01-23T00:02:40.962Z,15.95
2023-01-23T00:05:07.301Z,15.80
2023-01-23T00:07:33.611Z,14.57
2023-01-23T00:09:59.934Z,15.65
2023-01-23T00:12:26.235Z,15.55
2023-01-23T00:14:52.548Z,15.82
2023-01-23T00:17:18.863Z,14.75
2023-01-23T00:19:45.270Z,15.48
2023-01-23T00:22:14.159Z,14.82
2023-01-23T00:24:40.644Z,15.55
2023-01-23T00:27:07.007Z,15.82
2023-01-23T00:29:33.328Z,14.15
2023-01-23T00:31:59.712Z,15.80
2023-01-23T00:34:26.057Z,16.25
2023-01-23T00:36:52.361Z,15.50
2023-01-23T00:39:18.745Z,15.93
2023-01-23T00:41:45.127Z,15.35
2023-01-23T00:44:11.535Z,16.20
2023-01-23T00:46:37.897Z,15.35
2023-01-23T00:49:04.240Z,15.40
2023-01-23T00:51:30.552Z,14.38
2023-01-23T00:53:56.892Z,15.23
2023-01-23T00:56:23.215Z,15.07
2023-01-23T00:58:49.536Z,15.48
2023-01-23T01:01:15.940Z,14.48
2023-01-23T01:03:42.297Z,14.48
2023-01-23T01:06:08.618Z,14.77
2023-01-23T01:08:35.015Z,14.82
2023-01-23T01:11:01.315Z,15.40
2023-01-23T01:13:27.751Z,14.68
2023-01-23T01:15:54.163Z,14.63
2023-01-23T01:18:20.492Z,13.73
2023-01-23T01:20:46.845Z,15.82
2023-01-23T01:23:13.179Z,14.93
2023-01-23T01:25:39.495Z,15.43
2023-01-23T01:28:05.810Z,15.77
2023-01-23T01:30:32.252Z,15.30
2023-01-23T01:32:58.568Z,15.30
2023-01-23T01:35:24.898Z,14.87
2023-01-23T01:37:51.456Z,14.32
2023-01-23T01:40:18.059Z,15.32
2023-01-23T01:42:44.565Z,15.18
2023-01-23T01:45:10.890Z,14.02
2023-01-23T01:47:37.287Z,15.35
2023-01-23T01:50:03.611Z,15.90
2023-01-23T01:52:29.951Z,14.52
2023-01-23T01:54:56.298Z,14.73
2023-01-23T01:57:22.676Z,14.48
2023-01-23T01:59:49.028Z,14.00
2023-01-23T02:02:15.431Z,13.32
2023-01-23T02:04:41.763Z,14.32
2023-01-23T02:07:08.096Z,14.57
2023-01-23T02:09:34.482Z,14.27
2023-01-23T02:12:00.850Z,14.23
2023-01-23T02:14:27.208Z,15.43
2023-01-23T02:16:56.244Z,15.73
2023-01-23T02:19:22.543Z,14.60
2023-01-23T02:21:48.839Z,15.20
2023-01-23T02:24:15.210Z,14.13
2023-01-23T02:26:41.522Z,14.45
2023-01-23T02:29:07.828Z,13.50
2023-01-23T02:31:35.572Z,14.38
2023-01-23T02:34:02.084Z,13.68
2023-01-23T02:36:28.446Z,14.20
2023-01-23T02:38:54.933Z,14.85
2023-01-23T02:41:21.271Z,14.70
2023-01-23T02:43:47.658Z,13.27
2023-01-23T02:46:15.192Z,15.45
2023-01-23T02:48:43.800Z,13.75
2023-01-23T02:51:10.181Z,14.73
2023-01-23T02:53:36.578Z,14.85
2023-01-23T02:56:02.899Z,14.23
2023-01-23T02:58:48.011Z,14.52
2023-01-23T03:01:14.362Z,13.43
2023-01-23T03:03:43.913Z,14.60
2023-01-23T03:06:10.252Z,15.57
2023-01-23T03:08:48.234Z,14.80
2023-01-23T03:11:14.586Z,13.85
2023-01-23T03:13:40.894Z,14.80
2023-01-23T03:16:07.660Z,13.73
2023-01-23T03:18:40.069Z,13.80
2023-01-23T03:21:12.493Z,15.10
2023-01-23T03:23:38.825Z,15.15
2023-01-23T03:26:05.365Z,15.25
2023-01-23T03:28:50.633Z,16.37
2023-01-23T03:31:17.068Z,12.93
2023-01-23T03:33:43.747Z,13.52
2023-01-23T03:36:12.833Z,14.00
2023-01-23T03:38:39.535Z,14.10
2023-01-23T03:41:24.732Z,13.62
2023-01-23T03:43:51.039Z,14.95
2023-01-23T03:46:17.436Z,14.63
2023-01-23T03:48:43.799Z,14.73
2023-01-23T03:51:10.176Z,14.13
2023-01-23T03:53:36.533Z,13.82
2023-01-23T03:56:02.894Z,14.07
2023-01-23T03:58:30.570Z,14.20
2023-01-23T04:00:57.092Z,14.32
2023-01-23T04:03:23.451Z,14.38
2023-01-23T04:05:49.800Z,13.57
2023-01-23T04:08:16.102Z,14.15
2023-01-23T04:10:42.423Z,15.60
2023-01-23T04:13:08.742Z,14.02
2023-01-23T04:15:35.101Z,13.93
2023-01-23T04:18:01.411Z,14.35
2023-01-23T04:20:27.745Z,14.52
2023-01-23T04:22:54.115Z,13.90
2023-01-23T04:25:20.496Z,14.52
2023-01-23T04:27:46.878Z,14.48
2023-01-23T04:30:13.263Z,14.15
2023-01-23T04:32:39.579Z,13.85
2023-01-23T04:35:05.919Z,13.80
2023-01-23T04:37:32.248Z,14.68
2023-01-23T04:39:58.555Z,14.38
2023-01-23T04:42:24.895Z,15.88
2023-01-23T04:44:51.210Z,13.70
2023-01-23T04:47:17.560Z,15.35
2023-01-23T04:49:43.975Z,13.77
2023-01-23T04:52:10.288Z,14.90
2023-01-23T04:54:36.590Z,13.75
2023-01-23T04:57:02.908Z,15.32
2023-01-23T04:59:29.215Z,15.20
2023-01-23T05:01:55.575Z,15.75
2023-01-23T05:04:21.927Z,15.63
2023-01-23T05:06:48.239Z,16.00
2023-01-23T05:09:14.663Z,15.90
2023-01-23T05:11:41.035Z,15.00
2023-01-23T05:14:07.386Z,15.10
2023-01-23T05:16:33.724Z,15.25
2023-01-23T05:19:00.060Z,15.23
2023-01-23T05:21:26.380Z,15.68
2023-01-23T05:23:52.713Z,15.90
2023-01-23T05:26:19.015Z,16.00
2023-01-23T05:28:45.354Z,15.80
2023-01-23T05:31:11.775Z,16.33
2023-01-23T05:33:38.169Z,15.75
2023-01-23T05:36:04.548Z,14.85
2023-01-23T05:38:31.187Z,15.45
2023-01-23T05:40:57.503Z,16.20
2023-01-23T05:43:23.825Z,15.90
2023-01-23T05:45:50.173Z,16.80
2023-01-23T05:48:16.528Z,15.45
2023-01-23T05:50:42.856Z,15.43
2023-01-23T05:53:09.158Z,15.90
2023-01-23T05:55:35.495Z,14.93
2023-01-23T05:58:01.821Z,15.77
2023-01-23T06:00:28.180Z,15.77
2023-01-23T06:02:54.592Z,15.25
2023-01-23T06:05:20.987Z,16.02
2023-01-23T06:07:47.305Z,15.10
2023-01-23T06:10:13.682Z,15.10
2023-01-23T06:12:40.035Z,15.65
2023-01-23T06:15:06.338Z,16.02
2023-01-23T06:17:32.677Z,16.10
2023-01-23T06:19:59.032Z,15.75
2023-01-23T06:22:25.354Z,16.17
2023-01-23T06:24:52.748Z,16.00
2023-01-23T06:27:19.125Z,16.12
2023-01-23T06:29:45.513Z,15.43
2023-01-23T06:32:11.857Z,15.63
2023-01-23T06:34:38.250Z,14.55
2023-01-23T06:37:04.591Z,16.62
2023-01-23T06:39:30.912Z,16.70
2023-01-23T06:41:57.228Z,16.33
2023-01-23T06:44:23.631Z,15.75
2023-01-23T06:46:50.051Z,16.08
2023-01-23T06:49:16.428Z,17.77
2023-01-23T06:51:42.741Z,15.88
2023-01-23T06:54:09.075Z,16.30
2023-01-23T06:56:35.479Z,16.25
2023-01-23T06:59:01.856Z,15.73
2023-01-23T07:01:29.163Z,16.35
2023-01-23T07:03:55.493Z,16.33
2023-01-23T07:06:21.821Z,16.62
2023-01-23T07:08:48.218Z,16.58
2023-01-23T07:11:14.558Z,15.90
2023-01-23T07:13:40.880Z,16.33
2023-01-23T07:16:07.376Z,17.25
2023-01-23T07:18:33.772Z,17.23
2023-01-23T07:21:00.968Z,16.45
2023-01-23T07:23:27.283Z,16.08
2023-01-23T07:25:53.636Z,16.67
2023-01-23T07:28:19.931Z,18.25
2023-01-23T07:30:46.353Z,16.17
2023-01-23T07:33:12.684Z,17.12
2023-01-23T07:35:39.018Z,17.30
2023-01-23T07:38:05.357Z,17.17
2023-01-23T07:40:31.684Z,17.08
2023-01-23T07:42:58.070Z,16.90
2023-01-23T07:45:24.433Z,16.58
2023-01-23T07:47:50.819Z,16.55
2023-01-23T07:50:17.190Z,16.87
2023-01-23T07:52:43.657Z,16.85
2023-01-23T07:55:09.990Z,17.87
2023-01-23T07:57:36.304Z,18.23
2023-01-23T08:00:02.665Z,17.15
2023-01-23T08:02:29.044Z,17.95
2023-01-23T08:04:55.405Z,16.95
2023-01-23T08:07:21.819Z,16.70
2023-01-23T08:09:48.202Z,17.30
2023-01-23T08:12:14.571Z,16.67
2023-01-23T08:14:41.320Z,18.17
2023-01-23T08:17:07.651Z,18.00
2023-01-23T08:19:33.956Z,16.55
2023-01-23T08:22:00.300Z,17.30
2023-01-23T08:24:26.637Z,17.33
2023-01-23T08:26:52.990Z,17.77
2023-01-23T08:29:19.336Z,18.80
2023-01-23T08:31:45.738Z,17.73
2023-01-23T08:34:12.177Z,18.02
2023-01-23T08:36:38.553Z,18.23
2023-01-23T08:39:04.951Z,17.90
2023-01-23T08:41:31.323Z,17.65
2023-01-23T08:44:01.699Z,18.40
2023-01-23T08:46:28.243Z,17.50
2023-01-23T08:48:54.615Z,16.85
2023-01-23T08:51:20.949Z,17.92
2023-01-23T08:53:47.346Z,17.90
2023-01-23T08:56:16.376Z,17.60
2023-01-23T08:58:43.108Z,18.48
2023-01-23T09:01:09.474Z,17.48
2023-01-23T09:03:35.841Z,18.27
2023-01-23T09:06:02.400Z,17.83
2023-01-23T09:08:28.721Z,17.83
2023-01-23T09:10:56.581Z,17.33
2023-01-23T09:13:22.920Z,17.08
2023-01-23T09:15:49.613Z,17.42
2023-01-23T09:18:15.971Z,17.17
2023-01-23T09:20:42.384Z,18.02
2023-01-23T09:23:08.722Z,18.20
2023-01-23T09:25:35.116Z,17.42
2023-01-23T09:28:01.781Z,18.23
2023-01-23T09:30:28.514Z,18.08
2023-01-23T09:32:54.906Z,18.17
2023-01-23T09:35:21.245Z,18.67
2023-01-23T09:37:59.880Z,18.73
2023-01-23T09:40:26.249Z,19.70
2023-01-23T09:42:52.594Z,19.00
2023-01-23T09:45:18.915Z,19.05
2023-01-23T09:47:45.327Z,19.67
2023-01-23T09:50:11.627Z,19.35
2023-01-23T09:52:37.932Z,18.60
2023-01-23T09:55:04.300Z,19.35
2023-01-23T09:57:30.619Z,20.35
2023-01-23T10:00:00.155Z,19.05
2023-01-23T10:02:27.539Z,18.12
2023-01-23T10:04:53.928Z,19.05
2023-01-23T10:07:20.263Z,17.33
2023-01-23T10:09:46.585Z,19.20
2023-01-23T10:12:12.906Z,17.25
2023-01-23T10:14:39.211Z,17.50
2023-01-23T10:17:05.627Z,17.33
2023-01-23T10:19:31.993Z,17.98
2023-01-23T10:21:58.368Z,15.88
2023-01-23T10:24:24.718Z,16.20
2023-01-23T10:26:51.072Z,18.05
2023-01-23T10:29:17.392Z,17.40
2023-01-23T10:31:43.798Z,17.05
2023-01-23T10:34:10.155Z,18.30
2023-01-23T10:36:47.920Z,18.02
2023-01-23T10:39:19.726Z,16.60
2023-01-23T10:41:48.408Z,19.15
2023-01-23T10:44:14.939Z,17.62
2023-01-23T10:46:41.315Z,18.70
2023-01-23T10:49:07.633Z,17.50
2023-01-23T10:51:34.269Z,18.30
2023-01-23T10:54:04.597Z,17.87
2023-01-23T10:56:32.433Z,17.37
2023-01-23T10:58:58.774Z,17.52
2023-01-23T11:01:25.127Z,17.33
2023-01-23T11:03:51.650Z,17.48
2023-01-23T11:06:17.984Z,18.60
2023-01-23T11:08:44.313Z,18.33
2023-01-23T11:11:10.639Z,19.23
2023-01-23T11:13:36.965Z,18.83
2023-01-23T11:16:03.402Z,17.95
2023-01-23T11:18:29.813Z,16.42
2023-01-23T11:20:56.130Z,16.67
2023-01-23T11:23:22.541Z,18.42
2023-01-23T11:25:48.902Z,18.25
2023-01-23T11:28:15.225Z,14.75
2023-01-23T11:30:41.727Z,16.30
2023-01-23T11:33:08.113Z,16.58
2023-01-23T11:35:34.447Z,17.33
2023-01-23T11:38:00.739Z,17.60
2023-01-23T11:40:27.064Z,16.75
2023-01-23T11:42:53.616Z,16.27
2023-01-23T11:45:20.226Z,15.10
2023-01-23T11:47:46.679Z,13.68
2023-01-23T11:50:13.031Z,16.35
2023-01-23T11:52:39.343Z,15.93
2023-01-23T11:55:05.656Z,15.85
2023-01-23T11:57:31.961Z,16.65
2023-01-23T11:59:58.278Z,14.57
2023-01-23T12:02:24.621Z,15.55
2023-01-23T12:04:51.004Z,16.42
2023-01-23T12:07:17.383Z,13.02
2023-01-23T12:09:43.688Z,13.98
2023-01-23T12:12:10.067Z,15.52
2023-01-23T12:14:36.361Z,15.30
2023-01-23T12:17:02.726Z,15.18
2023-01-23T12:19:29.069Z,14.40
2023-01-23T12:21:55.477Z,15.00
2023-01-23T12:24:21.808Z,14.95
2023-01-23T12:26:48.145Z,14.98
2023-01-23T12:29:15.695Z,16.50
2023-01-23T12:31:42.147Z,16.92
2023-01-23T12:34:08.569Z,15.30
2023-01-23T12:36:40.329Z,16.02
2023-01-23T12:39:10.667Z,15.38
2023-01-23T12:41:38.080Z,19.20
2023-01-23T12:44:04.415Z,18.90
2023-01-23T12:46:30.785Z,18.70
2023-01-23T12:48:57.186Z,18.15
2023-01-23T12:51:23.579Z,18.52
2023-01-23T12:53:51.116Z,18.20
2023-01-23T12:56:17.466Z,18.87
2023-01-23T12:58:43.835Z,20.08
2023-01-23T13:01:10.208Z,19.40
2023-01-23T13:03:45.904Z,18.77
2023-01-23T13:06:12.968Z,19.00
2023-01-23T13:08:57.749Z,19.42
2023-01-23T13:11:40.969Z,18.17
2023-01-23T13:14:07.320Z,21.80
2023-01-23T13:16:33.675Z,18.50
2023-01-23T13:19:19.139Z,21.50
2023-01-23T13:22:00.879Z,21.70
2023-01-23T13:24:46.804Z,21.75
2023-01-23T13:27:13.148Z,20.58
2023-01-23T13:29:39.519Z,20.80
2023-01-23T13:32:05.939Z,21.62
2023-01-23T13:34:32.312Z,20.75
2023-01-23T13:36:58.657Z,22.42
2023-01-23T13:39:25.035Z,20.83
2023-01-23T13:41:51.426Z,21.37
2023-01-23T13:44:24.853Z,19.80
2023-01-23T14:20:55.316Z,23.58
2023-01-23T14:23:21.778Z,23.42
2023-01-23T14:25:48.284Z,24.02
2023-01-23T14:28:14.610Z,25.10
2023-01-23T14:30:40.937Z,26.62
2023-01-23T14:33:07.258Z,26.02
2023-01-23T14:35:33.633Z,27.02
2023-01-23T14:37:59.992Z,27.33
2023-01-23T14:40:28.459Z,26.58
2023-01-23T14:42:56.976Z,26.92
2023-01-23T14:45:23.329Z,25.05
2023-01-23T14:47:59.720Z,27.70
2023-01-23T14:50:31.836Z,27.27
2023-01-23T14:52:58.707Z,25.52
2023-01-23T14:55:29.850Z,27.73
2023-01-23T14:57:56.463Z,25.37
2023-01-23T15:00:22.804Z,25.48
2023-01-23T15:02:51.284Z,27.40
2023-01-23T15:05:21.208Z,27.08
2023-01-23T15:07:47.756Z,26.75
2023-01-23T15:10:14.184Z,28.52
2023-01-23T15:12:40.577Z,27.27
2023-01-23T15:15:06.939Z,29.27
2023-01-23T15:17:33.248Z,27.20
2023-01-23T15:19:59.603Z,27.30
2023-01-23T15:22:25.940Z,26.35
2023-01-23T15:24:52.266Z,26.48
2023-01-23T15:27:18.582Z,25.95
2023-01-23T15:29:45.012Z,25.98
2023-01-23T15:32:11.354Z,27.65
2023-01-23T15:34:37.796Z,28.80
2023-01-23T15:37:05.589Z,26.73
2023-01-23T15:39:31.925Z,25.55
2023-01-23T15:41:58.302Z,26.15
2023-01-23T15:44:26.431Z,26.37
2023-01-23T15:46:54.202Z,25.95
2023-01-23T15:49:25.930Z,27.62
2023-01-23T15:51:52.650Z,27.50
2023-01-23T15:54:19.294Z,28.20
2023-01-23T15:56:48.826Z,26.52
2023-01-23T15:59:17.197Z,26.50
2023-01-23T16:01:43.582Z,26.92
2023-01-23T16:04:09.911Z,25.83
2023-01-23T16:06:36.391Z,27.10
2023-01-23T16:09:05.892Z,27.73
2023-01-23T16:11:32.806Z,26.75
2023-01-23T16:13:59.128Z,27.33
2023-01-23T16:16:25.531Z,26.30
2023-01-23T16:18:51.874Z,25.90
2023-01-23T16:21:18.192Z,26.42
2023-01-23T16:23:47.483Z,26.77
2023-01-23T16:26:14.186Z,26.48
2023-01-23T16:28:40.560Z,27.58
2023-01-23T16:31:07.059Z,27.20
2023-01-23T16:33:33.384Z,27.17
2023-01-23T16:35:59.769Z,24.87
2023-01-23T16:38:26.563Z,25.95
2023-01-23T16:40:53.572Z,26.10
2023-01-23T16:43:19.920Z,27.27
2023-01-23T16:45:46.273Z,26.15
2023-01-23T16:48:21.686Z,25.67
2023-01-23T16:50:52.516Z,27.65
2023-01-23T16:53:18.903Z,27.05
2023-01-23T16:55:45.224Z,26.65
2023-01-23T16:58:11.570Z,26.70
2023-01-23T17:00:37.924Z,25.60
2023-01-23T17:03:04.244Z,26.50
2023-01-23T17:05:31.224Z,26.48
2023-01-23T17:07:57.566Z,25.62
2023-01-23T17:10:24.067Z,25.77
2023-01-23T17:12:51.337Z,25.67
2023-01-23T17:15:17.668Z,26.17
2023-01-23T17:17:45.432Z,26.45
2023-01-23T17:20:11.749Z,26.02
2023-01-23T17:22:38.068Z,25.48
2023-01-23T17:25:04.415Z,27.00
2023-01-23T17:27:34.331Z,26.48
2023-01-23T17:30:08.174Z,26.27
2023-01-23T17:32:35.493Z,26.37
2023-01-23T17:35:03.054Z,25.40
2023-01-23T17:37:29.618Z,25.58
2023-01-23T17:39:55.939Z,26.90
2023-01-23T17:42:22.350Z,26.35
2023-01-23T17:44:48.666Z,24.00
2023-01-23T17:47:15.205Z,24.92
2023-01-23T17:49:41.809Z,25.33
2023-01-23T17:52:08.205Z,25.50
2023-01-23T17:54:34.699Z,25.65
2023-01-23T17:57:01.021Z,24.05
2023-01-23T17:59:27.381Z,24.00
2023-01-23T18:01:53.730Z,24.52
2023-01-23T18:04:20.140Z,23.65
2023-01-23T18:06:46.569Z,23.27
2023-01-23T18:09:12.975Z,24.52
2023-01-23T18:11:39.368Z,24.25
2023-01-23T18:14:07.371Z,23.55
2023-01-23T18:16:33.784Z,24.00
2023-01-23T18:19:00.442Z,25.05
2023-01-23T18:21:26.765Z,23.58
2023-01-23T18:23:53.211Z,25.80
2023-01-23T18:26:19.579Z,23.65
2023-01-23T18:28:45.889Z,23.73
2023-01-23T18:31:12.247Z,24.50
2023-01-23T18:33:38.593Z,24.20
2023-01-23T18:36:05.154Z,23.90
2023-01-23T18:38:31.516Z,22.98
2023-01-23T18:40:57.841Z,24.23
2023-01-23T18:43:24.341Z,23.52
2023-01-23T18:45:50.744Z,21.92
2023-01-23T18:48:25.179Z,22.37
2023-01-23T18:50:52.110Z,22.13
2023-01-23T18:53:18.428Z,23.23
2023-01-23T18:55:44.725Z,22.67
2023-01-23T18:58:11.267Z,23.23
2023-01-23T19:00:37.651Z,21.95
2023-01-23T19:03:04.187Z,22.90
2023-01-23T19:05:30.618Z,23.55
2023-01-23T19:07:57.031Z,23.08
2023-01-23T19:10:23.354Z,22.90
2023-01-23T19:12:49.677Z,23.35
2023-01-23T19:15:16.384Z,23.35
2023-01-23T19:17:42.712Z,23.42
2023-01-23T19:20:09.048Z,22.33
2023-01-23T19:22:37.318Z,22.55
2023-01-23T19:25:03.623Z,22.25
2023-01-23T19:27:29.943Z,21.27
2023-01-23T19:29:56.299Z,23.85
2023-01-23T19:32:22.905Z,22.83
2023-01-23T19:34:49.262Z,22.23
2023-01-23T19:37:15.603Z,22.45
2023-01-23T19:39:41.971Z,22.05
2023-01-23T19:42:08.302Z,22.20
2023-01-23T19:44:34.692Z,22.87
2023-01-23T19:47:03.540Z,23.70
2023-01-23T19:49:30.008Z,24.12
2023-01-23T19:51:56.523Z,25.17
2023-01-23T19:54:24.315Z,24.85
2023-01-23T19:56:50.836Z,23.02
2023-01-23T19:59:17.145Z,26.62
2023-01-23T20:01:45.568Z,25.25
2023-01-23T20:04:12.028Z,25.70
2023-01-23T20:06:40.551Z,26.70
2023-01-23T20:09:06.995Z,26.92
2023-01-23T20:11:33.320Z,25.70
2023-01-23T20:13:59.656Z,25.02
2023-01-23T20:16:26.547Z,27.23
2023-01-23T20:18:53.634Z,28.25
2023-01-23T20:21:20.025Z,25.62
2023-01-23T20:23:46.439Z,26.87
2023-01-23T20:26:13.076Z,26.50
2023-01-23T20:28:39.463Z,27.02
2023-01-23T20:31:05.907Z,26.75
2023-01-23T20:33:32.350Z,28.10
2023-01-23T20:35:58.846Z,26.15
2023-01-23T20:38:25.160Z,25.45
2023-01-23T20:40:51.468Z,27.42
2023-01-23T20:43:17.887Z,26.73
2023-01-23T20:45:44.255Z,27.05
2023-01-23T20:48:10.605Z,27.83
2023-01-23T20:50:36.924Z,27.70
2023-01-23T20:53:22.193Z,27.90
2023-01-23T20:55:48.483Z,29.33
2023-01-23T20:58:33.765Z,28.40
2023-01-23T21:01:00.171Z,27.40
2023-01-23T21:03:26.540Z,28.92
2023-01-23T21:05:52.854Z,28.00
2023-01-23T21:08:19.159Z,28.05
2023-01-23T21:10:45.485Z,27.62
2023-01-23T21:13:15.721Z,26.75
2023-01-23T21:15:42.095Z,28.42
2023-01-23T21:18:08.518Z,27.62
2023-01-23T21:20:34.815Z,27.77
2023-01-23T21:23:01.124Z,26.83
2023-01-23T21:25:27.448Z,29.30
2023-01-23T21:27:53.753Z,27.13
2023-01-23T21:30:20.087Z,26.25
2023-01-23T21:32:46.442Z,28.38
2023-01-23T21:35:12.775Z,28.02
2023-01-23T21:37:39.146Z,29.00
2023-01-23T21:40:05.523Z,28.87
2023-01-23T21:42:31.833Z,30.80
2023-01-23T21:44:58.135Z,30.02
2023-01-23T21:47:24.534Z,29.52
2023-01-23T21:49:51.839Z,28.98
2023-01-23T21:52:18.200Z,29.92
2023-01-23T21:54:44.520Z,28.90
2023-01-23T21:57:10.827Z,27.10
2023-01-23T21:59:37.196Z,27.30
2023-01-23T22:02:03.554Z,30.30
2023-01-23T22:04:29.983Z,28.42
2023-01-23T22:06:56.354Z,30.23
2023-01-23T22:09:22.703Z,31.00
2023-01-23T22:11:49.134Z,29.85
2023-01-23T22:14:15.469Z,30.70
2023-01-23T22:16:50.275Z,29.27
2023-01-23T22:19:17.300Z,29.50
2023-01-23T22:21:44.419Z,29.65
2023-01-23T22:24:10.884Z,30.42
2023-01-23T22:26:37.296Z,30.12
2023-01-23T22:29:03.640Z,27.80
2023-01-23T22:31:30.394Z,29.85
2023-01-23T22:33:56.875Z,28.23
2023-01-23T22:36:23.341Z,29.73
2023-01-23T22:38:49.663Z,30.60
2023-01-23T22:41:15.966Z,30.25
2023-01-23T22:43:42.291Z,31.42
2023-01-23T22:46:08.595Z,30.88
2023-01-23T22:48:35.411Z,30.95
2023-01-23T22:51:01.808Z,31.35
2023-01-23T22:53:28.226Z,30.42
2023-01-23T22:55:54.591Z,30.55
2023-01-23T22:58:20.902Z,30.90
2023-01-23T23:00:48.492Z,32.08
2023-01-23T23:03:14.920Z,30.12
2023-01-23T23:05:41.262Z,32.60
2023-01-23T23:08:07.699Z,31.15
2023-01-23T23:10:34.017Z,32.55
2023-01-23T23:13:00.334Z,31.55
2023-01-23T23:15:26.640Z,30.45
2023-01-23T23:17:53.051Z,30.65
2023-01-23T23:20:19.511Z,30.92
2023-01-23T23:22:45.827Z,31.00
2023-01-23T23:25:12.125Z,31.42
2023-01-23T23:27:39.230Z,31.30
2023-01-23T23:30:05.525Z,31.67
2023-01-23T23:32:31.894Z,32.05
2023-01-23T23:34:59.347Z,31.30
2023-01-23T23:37:25.697Z,31.95
2023-01-23T23:39:52.026Z,30.37
2023-01-23T23:42:18.356Z,28.83
2023-01-23T23:44:44.819Z,30.70
2023-01-23T23:47:11.176Z,28.85
2023-01-23T23:49:37.522Z,29.98
2023-01-23T23:52:03.904Z,31.08
2023-01-23T23:54:30.290Z,31.67
2023-01-23T23:56:56.634Z,30.60
2023-01-23T23:59:22.971Z,31.05
